sensor_id;sensor_type;location;lat;lon;timestamp;P1;durP1;ratioP1;P2;durP2;ratioP2
43216;SDS011;60511;42.686;23.300;2023-05-07T00:00:59;9.07;;;6.88;;
43216;SDS011;60511;42.686;23.300;2023-05-07T00:03:00;11.50;;;7.18;;
43216;SDS011;60511;42.686;23.300;2023-05-07T00:05:01;8.00;;;6.90;;
43216;SDS011;60511;42.686;23.300;2023-05-07T00:07:02;8.90;;;6.78;;
43216;SDS011;60511;42.686;23.300;2023-05-07T00:09:03;11.18;;;6.68;;
43216;SDS011;60511;42.686;23.300;2023-05-07T00:11:04;10.68;;;7.18;;
43216;SDS011;60511;42.686;23.300;2023-05-07T00:13:04;9.52;;;6.90;;
43216;SDS011;60511;42.686;23.300;2023-05-07T00:15:05;9.40;;;7.10;;
43216;SDS011;60511;42.686;23.300;2023-05-07T00:17:06;10.38;;;6.75;;
43216;SDS011;60511;42.686;23.300;2023-05-07T00:19:06;9.55;;;7.15;;
43216;SDS011;60511;42.686;23.300;2023-05-07T00:21:07;9.95;;;6.53;;
43216;SDS011;60511;42.686;23.300;2023-05-07T00:23:08;9.60;;;6.28;;
43216;SDS011;60511;42.686;23.300;2023-05-07T00:25:09;10.30;;;7.10;;
43216;SDS011;60511;42.686;23.300;2023-05-07T00:27:10;9.63;;;6.40;;
43216;SDS011;60511;42.686;23.300;2023-05-07T00:29:10;8.95;;;6.90;;
43216;SDS011;60511;42.686;23.300;2023-05-07T00:31:11;7.05;;;6.28;;
43216;SDS011;60511;42.686;23.300;2023-05-07T00:33:11;10.45;;;6.68;;
43216;SDS011;60511;42.686;23.300;2023-05-07T00:35:12;8.40;;;6.43;;
43216;SDS011;60511;42.686;23.300;2023-05-07T00:37:12;9.13;;;6.57;;
43216;SDS011;60511;42.686;23.300;2023-05-07T00:39:13;8.73;;;6.07;;
43216;SDS011;60511;42.686;23.300;2023-05-07T00:41:13;7.78;;;6.13;;
43216;SDS011;60511;42.686;23.300;2023-05-07T00:43:13;7.57;;;5.97;;
43216;SDS011;60511;42.686;23.300;2023-05-07T00:45:15;8.57;;;6.43;;
43216;SDS011;60511;42.686;23.300;2023-05-07T00:47:16;9.52;;;7.13;;
43216;SDS011;60511;42.686;23.300;2023-05-07T00:49:17;9.77;;;6.30;;
43216;SDS011;60511;42.686;23.300;2023-05-07T00:51:18;7.20;;;5.70;;
43216;SDS011;60511;42.686;23.300;2023-05-07T00:53:19;8.05;;;5.95;;
43216;SDS011;60511;42.686;23.300;2023-05-07T00:55:21;8.80;;;6.43;;
43216;SDS011;60511;42.686;23.300;2023-05-07T00:57:22;10.80;;;6.93;;
43216;SDS011;60511;42.686;23.300;2023-05-07T00:59:24;8.45;;;5.97;;
43216;SDS011;60511;42.686;23.300;2023-05-07T01:01:24;8.02;;;5.88;;
43216;SDS011;60511;42.686;23.300;2023-05-07T01:03:26;7.82;;;6.93;;
43216;SDS011;60511;42.686;23.300;2023-05-07T01:05:26;7.45;;;6.05;;
43216;SDS011;60511;42.686;23.300;2023-05-07T01:07:29;7.22;;;5.82;;
43216;SDS011;60511;42.686;23.300;2023-05-07T01:09:30;8.57;;;6.15;;
43216;SDS011;60511;42.686;23.300;2023-05-07T01:11:31;9.40;;;5.78;;
43216;SDS011;60511;42.686;23.300;2023-05-07T01:13:32;9.50;;;6.03;;
43216;SDS011;60511;42.686;23.300;2023-05-07T01:15:34;9.07;;;7.05;;
43216;SDS011;60511;42.686;23.300;2023-05-07T01:17:35;8.07;;;5.60;;
43216;SDS011;60511;42.686;23.300;2023-05-07T01:19:36;9.05;;;6.50;;
43216;SDS011;60511;42.686;23.300;2023-05-07T01:21:36;8.85;;;5.93;;
43216;SDS011;60511;42.686;23.300;2023-05-07T01:23:38;6.35;;;5.30;;
43216;SDS011;60511;42.686;23.300;2023-05-07T01:25:39;6.95;;;5.75;;
43216;SDS011;60511;42.686;23.300;2023-05-07T01:27:40;8.18;;;6.03;;
43216;SDS011;60511;42.686;23.300;2023-05-07T01:29:40;8.70;;;5.97;;
43216;SDS011;60511;42.686;23.300;2023-05-07T01:31:41;7.47;;;6.13;;
43216;SDS011;60511;42.686;23.300;2023-05-07T01:33:42;7.57;;;5.47;;
43216;SDS011;60511;42.686;23.300;2023-05-07T01:35:45;7.70;;;5.45;;
43216;SDS011;60511;42.686;23.300;2023-05-07T01:37:48;7.93;;;5.63;;
43216;SDS011;60511;42.686;23.300;2023-05-07T01:39:49;7.63;;;5.20;;
43216;SDS011;60511;42.686;23.300;2023-05-07T01:41:50;6.90;;;5.85;;
43216;SDS011;60511;42.686;23.300;2023-05-07T01:43:51;6.68;;;5.72;;
43216;SDS011;60511;42.686;23.300;2023-05-07T01:45:52;7.72;;;5.75;;
43216;SDS011;60511;42.686;23.300;2023-05-07T01:47:53;7.97;;;5.55;;
43216;SDS011;60511;42.686;23.300;2023-05-07T01:49:55;8.73;;;5.40;;
43216;SDS011;60511;42.686;23.300;2023-05-07T01:51:56;7.03;;;5.13;;
43216;SDS011;60511;42.686;23.300;2023-05-07T01:53:57;8.75;;;5.68;;
43216;SDS011;60511;42.686;23.300;2023-05-07T01:55:57;6.55;;;5.80;;
43216;SDS011;60511;42.686;23.300;2023-05-07T01:57:58;7.10;;;5.63;;
43216;SDS011;60511;42.686;23.300;2023-05-07T01:59:58;6.97;;;5.95;;
43216;SDS011;60511;42.686;23.300;2023-05-07T02:01:58;7.63;;;5.78;;
43216;SDS011;60511;42.686;23.300;2023-05-07T02:03:59;7.40;;;5.43;;
43216;SDS011;60511;42.686;23.300;2023-05-07T02:05:59;7.47;;;6.03;;
43216;SDS011;60511;42.686;23.300;2023-05-07T02:08:00;7.25;;;5.93;;
43216;SDS011;60511;42.686;23.300;2023-05-07T02:10:00;6.15;;;5.35;;
43216;SDS011;60511;42.686;23.300;2023-05-07T02:12:01;7.30;;;6.03;;
43216;SDS011;60511;42.686;23.300;2023-05-07T02:14:01;6.18;;;5.15;;
43216;SDS011;60511;42.686;23.300;2023-05-07T02:16:02;8.75;;;6.20;;
43216;SDS011;60511;42.686;23.300;2023-05-07T02:18:03;5.75;;;5.15;;
43216;SDS011;60511;42.686;23.300;2023-05-07T02:20:06;8.15;;;6.18;;
43216;SDS011;60511;42.686;23.300;2023-05-07T02:22:13;6.07;;;4.57;;
43216;SDS011;60511;42.686;23.300;2023-05-07T02:24:13;6.90;;;5.30;;
43216;SDS011;60511;42.686;23.300;2023-05-07T02:26:14;6.95;;;5.82;;
43216;SDS011;60511;42.686;23.300;2023-05-07T02:28:14;8.00;;;6.15;;
43216;SDS011;60511;42.686;23.300;2023-05-07T02:30:15;7.30;;;5.65;;
43216;SDS011;60511;42.686;23.300;2023-05-07T02:32:15;7.40;;;5.22;;
43216;SDS011;60511;42.686;23.300;2023-05-07T02:34:16;5.93;;;5.30;;
43216;SDS011;60511;42.686;23.300;2023-05-07T02:36:17;6.55;;;5.18;;
43216;SDS011;60511;42.686;23.300;2023-05-07T02:38:17;5.63;;;4.97;;
43216;SDS011;60511;42.686;23.300;2023-05-07T02:40:18;6.47;;;5.45;;
43216;SDS011;60511;42.686;23.300;2023-05-07T02:42:18;6.13;;;4.65;;
43216;SDS011;60511;42.686;23.300;2023-05-07T02:44:18;7.40;;;4.95;;
43216;SDS011;60511;42.686;23.300;2023-05-07T02:46:19;6.88;;;5.32;;
43216;SDS011;60511;42.686;23.300;2023-05-07T02:48:19;7.75;;;5.53;;
43216;SDS011;60511;42.686;23.300;2023-05-07T02:50:20;6.75;;;5.35;;
43216;SDS011;60511;42.686;23.300;2023-05-07T02:52:20;6.60;;;5.10;;
43216;SDS011;60511;42.686;23.300;2023-05-07T02:54:21;5.50;;;4.57;;
43216;SDS011;60511;42.686;23.300;2023-05-07T02:56:22;6.03;;;4.63;;
43216;SDS011;60511;42.686;23.300;2023-05-07T02:58:23;5.95;;;5.30;;
43216;SDS011;60511;42.686;23.300;2023-05-07T03:00:24;5.07;;;4.60;;
43216;SDS011;60511;42.686;23.300;2023-05-07T03:02:24;6.97;;;5.20;;
43216;SDS011;60511;42.686;23.300;2023-05-07T03:04:25;6.57;;;4.97;;
43216;SDS011;60511;42.686;23.300;2023-05-07T03:06:25;6.03;;;4.80;;
43216;SDS011;60511;42.686;23.300;2023-05-07T03:08:26;5.97;;;5.05;;
43216;SDS011;60511;42.686;23.300;2023-05-07T03:10:26;6.47;;;4.95;;
43216;SDS011;60511;42.686;23.300;2023-05-07T03:12:26;6.18;;;5.13;;
43216;SDS011;60511;42.686;23.300;2023-05-07T03:14:27;6.55;;;5.13;;
43216;SDS011;60511;42.686;23.300;2023-05-07T03:16:27;6.95;;;4.65;;
43216;SDS011;60511;42.686;23.300;2023-05-07T03:18:28;5.13;;;4.05;;
43216;SDS011;60511;42.686;23.300;2023-05-07T03:20:28;5.30;;;4.60;;
43216;SDS011;60511;42.686;23.300;2023-05-07T03:22:28;5.50;;;4.90;;
43216;SDS011;60511;42.686;23.300;2023-05-07T03:24:29;6.32;;;5.20;;
43216;SDS011;60511;42.686;23.300;2023-05-07T03:26:29;5.63;;;4.53;;
43216;SDS011;60511;42.686;23.300;2023-05-07T03:28:29;6.13;;;4.50;;
43216;SDS011;60511;42.686;23.300;2023-05-07T03:30:30;5.38;;;4.80;;
43216;SDS011;60511;42.686;23.300;2023-05-07T03:32:30;6.43;;;4.82;;
43216;SDS011;60511;42.686;23.300;2023-05-07T03:34:30;6.28;;;4.90;;
43216;SDS011;60511;42.686;23.300;2023-05-07T03:36:31;6.38;;;4.70;;
43216;SDS011;60511;42.686;23.300;2023-05-07T03:38:31;5.68;;;4.75;;
43216;SDS011;60511;42.686;23.300;2023-05-07T03:40:32;5.30;;;4.80;;
43216;SDS011;60511;42.686;23.300;2023-05-07T03:42:32;6.38;;;4.68;;
43216;SDS011;60511;42.686;23.300;2023-05-07T03:44:32;7.05;;;4.57;;
43216;SDS011;60511;42.686;23.300;2023-05-07T03:46:33;5.95;;;5.00;;
43216;SDS011;60511;42.686;23.300;2023-05-07T03:48:34;4.90;;;4.43;;
43216;SDS011;60511;42.686;23.300;2023-05-07T03:50:34;6.63;;;5.00;;
43216;SDS011;60511;42.686;23.300;2023-05-07T03:52:35;7.05;;;4.90;;
43216;SDS011;60511;42.686;23.300;2023-05-07T03:54:35;5.57;;;4.90;;
43216;SDS011;60511;42.686;23.300;2023-05-07T03:56:36;5.60;;;5.00;;
43216;SDS011;60511;42.686;23.300;2023-05-07T03:58:36;6.18;;;4.25;;
43216;SDS011;60511;42.686;23.300;2023-05-07T04:00:38;5.68;;;5.07;;
43216;SDS011;60511;42.686;23.300;2023-05-07T04:02:40;5.07;;;4.57;;
43216;SDS011;60511;42.686;23.300;2023-05-07T04:04:40;5.35;;;4.45;;
43216;SDS011;60511;42.686;23.300;2023-05-07T04:06:40;6.55;;;5.03;;
43216;SDS011;60511;42.686;23.300;2023-05-07T04:08:41;5.38;;;4.28;;
43216;SDS011;60511;42.686;23.300;2023-05-07T04:10:41;5.80;;;4.50;;
43216;SDS011;60511;42.686;23.300;2023-05-07T04:12:41;5.00;;;4.53;;
43216;SDS011;60511;42.686;23.300;2023-05-07T04:14:42;6.15;;;4.90;;
43216;SDS011;60511;42.686;23.300;2023-05-07T04:16:42;5.57;;;4.43;;
43216;SDS011;60511;42.686;23.300;2023-05-07T04:18:42;5.10;;;4.60;;
43216;SDS011;60511;42.686;23.300;2023-05-07T04:20:43;5.45;;;4.35;;
43216;SDS011;60511;42.686;23.300;2023-05-07T04:22:43;4.93;;;4.43;;
43216;SDS011;60511;42.686;23.300;2023-05-07T04:24:44;6.60;;;5.35;;
43216;SDS011;60511;42.686;23.300;2023-05-07T04:26:44;5.15;;;4.60;;
43216;SDS011;60511;42.686;23.300;2023-05-07T04:28:45;5.40;;;4.47;;
43216;SDS011;60511;42.686;23.300;2023-05-07T04:30:45;5.97;;;4.70;;
43216;SDS011;60511;42.686;23.300;2023-05-07T04:32:46;5.13;;;4.35;;
43216;SDS011;60511;42.686;23.300;2023-05-07T04:34:46;5.10;;;4.05;;
43216;SDS011;60511;42.686;23.300;2023-05-07T04:36:46;4.80;;;4.07;;
43216;SDS011;60511;42.686;23.300;2023-05-07T04:38:48;6.03;;;4.50;;
43216;SDS011;60511;42.686;23.300;2023-05-07T04:40:48;5.90;;;4.63;;
43216;SDS011;60511;42.686;23.300;2023-05-07T04:42:49;5.72;;;5.05;;
43216;SDS011;60511;42.686;23.300;2023-05-07T04:44:52;5.95;;;4.60;;
43216;SDS011;60511;42.686;23.300;2023-05-07T04:46:53;5.70;;;4.45;;
43216;SDS011;60511;42.686;23.300;2023-05-07T04:48:53;5.55;;;4.65;;
43216;SDS011;60511;42.686;23.300;2023-05-07T04:50:54;6.70;;;5.00;;
43216;SDS011;60511;42.686;23.300;2023-05-07T04:52:54;4.80;;;4.28;;
43216;SDS011;60511;42.686;23.300;2023-05-07T04:54:55;5.85;;;4.97;;
43216;SDS011;60511;42.686;23.300;2023-05-07T04:56:55;5.90;;;4.90;;
43216;SDS011;60511;42.686;23.300;2023-05-07T04:58:56;4.85;;;4.38;;
43216;SDS011;60511;42.686;23.300;2023-05-07T05:00:57;4.85;;;4.35;;
43216;SDS011;60511;42.686;23.300;2023-05-07T05:02:58;5.15;;;4.65;;
43216;SDS011;60511;42.686;23.300;2023-05-07T05:04:59;5.93;;;4.60;;
43216;SDS011;60511;42.686;23.300;2023-05-07T05:06:59;5.13;;;4.57;;
43216;SDS011;60511;42.686;23.300;2023-05-07T05:09:00;6.07;;;5.05;;
43216;SDS011;60511;42.686;23.300;2023-05-07T05:11:01;6.38;;;4.30;;
43216;SDS011;60511;42.686;23.300;2023-05-07T05:13:02;5.82;;;4.50;;
43216;SDS011;60511;42.686;23.300;2023-05-07T05:15:02;4.45;;;4.05;;
43216;SDS011;60511;42.686;23.300;2023-05-07T05:17:03;5.00;;;4.40;;
43216;SDS011;60511;42.686;23.300;2023-05-07T05:19:03;5.10;;;4.32;;
43216;SDS011;60511;42.686;23.300;2023-05-07T05:21:04;4.40;;;4.00;;
43216;SDS011;60511;42.686;23.300;2023-05-07T05:23:04;5.65;;;4.35;;
43216;SDS011;60511;42.686;23.300;2023-05-07T05:25:06;6.50;;;4.57;;
43216;SDS011;60511;42.686;23.300;2023-05-07T05:27:06;6.43;;;4.30;;
43216;SDS011;60511;42.686;23.300;2023-05-07T05:29:06;5.30;;;4.25;;
43216;SDS011;60511;42.686;23.300;2023-05-07T05:31:07;4.30;;;3.90;;
43216;SDS011;60511;42.686;23.300;2023-05-07T05:33:08;5.15;;;4.43;;
43216;SDS011;60511;42.686;23.300;2023-05-07T05:35:08;4.10;;;3.70;;
43216;SDS011;60511;42.686;23.300;2023-05-07T05:37:09;6.45;;;4.43;;
43216;SDS011;60511;42.686;23.300;2023-05-07T05:39:09;4.60;;;4.20;;
43216;SDS011;60511;42.686;23.300;2023-05-07T05:41:09;4.50;;;4.10;;
43216;SDS011;60511;42.686;23.300;2023-05-07T05:43:10;5.28;;;4.78;;
43216;SDS011;60511;42.686;23.300;2023-05-07T05:45:10;4.75;;;4.35;;
43216;SDS011;60511;42.686;23.300;2023-05-07T05:47:12;4.78;;;4.15;;
43216;SDS011;60511;42.686;23.300;2023-05-07T05:49:12;4.60;;;4.20;;
43216;SDS011;60511;42.686;23.300;2023-05-07T05:51:13;5.03;;;4.55;;
43216;SDS011;60511;42.686;23.300;2023-05-07T05:53:13;5.40;;;4.65;;
43216;SDS011;60511;42.686;23.300;2023-05-07T05:55:13;8.07;;;4.30;;
43216;SDS011;60511;42.686;23.300;2023-05-07T05:57:14;4.85;;;4.38;;
43216;SDS011;60511;42.686;23.300;2023-05-07T05:59:14;4.40;;;4.00;;
43216;SDS011;60511;42.686;23.300;2023-05-07T06:01:15;4.90;;;4.43;;
43216;SDS011;60511;42.686;23.300;2023-05-07T06:03:16;4.60;;;4.20;;
43216;SDS011;60511;42.686;23.300;2023-05-07T06:05:17;5.13;;;4.28;;
43216;SDS011;60511;42.686;23.300;2023-05-07T06:07:17;4.72;;;4.18;;
43216;SDS011;60511;42.686;23.300;2023-05-07T06:09:18;4.32;;;3.92;;
43216;SDS011;60511;42.686;23.300;2023-05-07T06:11:18;5.00;;;4.45;;
43216;SDS011;60511;42.686;23.300;2023-05-07T06:13:18;5.20;;;4.47;;
43216;SDS011;60511;42.686;23.300;2023-05-07T06:15:19;4.45;;;4.05;;
43216;SDS011;60511;42.686;23.300;2023-05-07T06:17:19;4.57;;;4.13;;
43216;SDS011;60511;42.686;23.300;2023-05-07T06:19:20;4.50;;;4.10;;
43216;SDS011;60511;42.686;23.300;2023-05-07T06:21:23;4.97;;;4.47;;
43216;SDS011;60511;42.686;23.300;2023-05-07T06:23:23;5.05;;;3.90;;
43216;SDS011;60511;42.686;23.300;2023-05-07T06:25:23;6.20;;;4.82;;
43216;SDS011;60511;42.686;23.300;2023-05-07T06:27:24;4.68;;;4.20;;
43216;SDS011;60511;42.686;23.300;2023-05-07T06:29:25;4.78;;;4.13;;
43216;SDS011;60511;42.686;23.300;2023-05-07T06:31:28;4.50;;;4.05;;
43216;SDS011;60511;42.686;23.300;2023-05-07T06:33:30;4.82;;;4.35;;
43216;SDS011;60511;42.686;23.300;2023-05-07T06:35:30;4.50;;;4.10;;
43216;SDS011;60511;42.686;23.300;2023-05-07T06:37:31;4.53;;;4.10;;
43216;SDS011;60511;42.686;23.300;2023-05-07T06:39:31;4.45;;;4.05;;
43216;SDS011;60511;42.686;23.300;2023-05-07T06:41:32;4.75;;;3.85;;
43216;SDS011;60511;42.686;23.300;2023-05-07T06:43:33;5.13;;;4.05;;
43216;SDS011;60511;42.686;23.300;2023-05-07T06:45:33;4.38;;;3.97;;
43216;SDS011;60511;42.686;23.300;2023-05-07T06:47:33;4.57;;;4.18;;
43216;SDS011;60511;42.686;23.300;2023-05-07T06:49:34;4.82;;;4.35;;
43216;SDS011;60511;42.686;23.300;2023-05-07T06:51:34;4.50;;;4.10;;
43216;SDS011;60511;42.686;23.300;2023-05-07T06:53:35;4.70;;;4.30;;
43216;SDS011;60511;42.686;23.300;2023-05-07T06:55:35;4.20;;;3.80;;
43216;SDS011;60511;42.686;23.300;2023-05-07T06:57:38;4.50;;;3.92;;
43216;SDS011;60511;42.686;23.300;2023-05-07T06:59:38;4.57;;;4.18;;
43216;SDS011;60511;42.686;23.300;2023-05-07T07:01:39;4.80;;;4.30;;
43216;SDS011;60511;42.686;23.300;2023-05-07T07:03:39;4.80;;;4.40;;
43216;SDS011;60511;42.686;23.300;2023-05-07T07:05:40;4.93;;;3.78;;
43216;SDS011;60511;42.686;23.300;2023-05-07T07:07:41;4.80;;;3.65;;
43216;SDS011;60511;42.686;23.300;2023-05-07T07:09:42;5.47;;;4.63;;
43216;SDS011;60511;42.686;23.300;2023-05-07T07:11:42;4.72;;;4.32;;
43216;SDS011;60511;42.686;23.300;2023-05-07T07:13:42;4.68;;;4.20;;
43216;SDS011;60511;42.686;23.300;2023-05-07T07:15:43;5.57;;;4.78;;
43216;SDS011;60511;42.686;23.300;2023-05-07T07:17:43;4.00;;;3.67;;
43216;SDS011;60511;42.686;23.300;2023-05-07T07:19:44;4.40;;;4.00;;
43216;SDS011;60511;42.686;23.300;2023-05-07T07:21:44;5.07;;;4.30;;
43216;SDS011;60511;42.686;23.300;2023-05-07T07:23:44;4.68;;;4.18;;
43216;SDS011;60511;42.686;23.300;2023-05-07T07:25:45;4.30;;;3.90;;
43216;SDS011;60511;42.686;23.300;2023-05-07T07:27:46;4.50;;;4.07;;
43216;SDS011;60511;42.686;23.300;2023-05-07T07:29:46;4.35;;;3.95;;
43216;SDS011;60511;42.686;23.300;2023-05-07T07:31:47;4.35;;;3.95;;
43216;SDS011;60511;42.686;23.300;2023-05-07T07:33:48;4.78;;;4.38;;
43216;SDS011;60511;42.686;23.300;2023-05-07T07:35:50;4.32;;;4.03;;
43216;SDS011;60511;42.686;23.300;2023-05-07T07:37:50;4.22;;;3.83;;
43216;SDS011;60511;42.686;23.300;2023-05-07T07:39:51;4.22;;;3.75;;
43216;SDS011;60511;42.686;23.300;2023-05-07T07:41:51;4.45;;;4.05;;
43216;SDS011;60511;42.686;23.300;2023-05-07T07:43:51;4.57;;;4.18;;
43216;SDS011;60511;42.686;23.300;2023-05-07T07:45:52;4.38;;;3.97;;
43216;SDS011;60511;42.686;23.300;2023-05-07T07:47:52;4.80;;;3.88;;
43216;SDS011;60511;42.686;23.300;2023-05-07T07:49:52;4.40;;;4.00;;
43216;SDS011;60511;42.686;23.300;2023-05-07T07:51:53;4.50;;;4.10;;
43216;SDS011;60511;42.686;23.300;2023-05-07T07:53:53;4.57;;;4.13;;
43216;SDS011;60511;42.686;23.300;2023-05-07T07:55:53;4.82;;;4.43;;
43216;SDS011;60511;42.686;23.300;2023-05-07T07:57:54;4.38;;;4.00;;
43216;SDS011;60511;42.686;23.300;2023-05-07T07:59:56;4.35;;;4.05;;
43216;SDS011;60511;42.686;23.300;2023-05-07T08:01:56;4.60;;;3.95;;
43216;SDS011;60511;42.686;23.300;2023-05-07T08:03:57;4.25;;;3.78;;
43216;SDS011;60511;42.686;23.300;2023-05-07T08:06:00;4.43;;;4.03;;
43216;SDS011;60511;42.686;23.300;2023-05-07T08:08:00;4.13;;;3.72;;
43216;SDS011;60511;42.686;23.300;2023-05-07T08:10:00;4.53;;;3.83;;
43216;SDS011;60511;42.686;23.300;2023-05-07T08:12:02;4.75;;;3.97;;
43216;SDS011;60511;42.686;23.300;2023-05-07T08:14:03;4.40;;;4.10;;
43216;SDS011;60511;42.686;23.300;2023-05-07T08:16:04;4.82;;;4.35;;
43216;SDS011;60511;42.686;23.300;2023-05-07T08:18:05;4.22;;;3.83;;
43216;SDS011;60511;42.686;23.300;2023-05-07T08:20:05;4.63;;;4.22;;
43216;SDS011;60511;42.686;23.300;2023-05-07T08:22:06;4.20;;;3.80;;
43216;SDS011;60511;42.686;23.300;2023-05-07T08:24:07;4.93;;;4.43;;
43216;SDS011;60511;42.686;23.300;2023-05-07T08:26:07;4.43;;;4.03;;
43216;SDS011;60511;42.686;23.300;2023-05-07T08:28:08;4.00;;;3.70;;
43216;SDS011;60511;42.686;23.300;2023-05-07T08:30:09;5.20;;;4.05;;
43216;SDS011;60511;42.686;23.300;2023-05-07T08:32:09;4.65;;;4.28;;
43216;SDS011;60511;42.686;23.300;2023-05-07T08:34:10;4.22;;;3.90;;
43216;SDS011;60511;42.686;23.300;2023-05-07T08:36:10;3.97;;;3.67;;
43216;SDS011;60511;42.686;23.300;2023-05-07T08:38:10;4.35;;;3.95;;
43216;SDS011;60511;42.686;23.300;2023-05-07T08:40:11;4.05;;;3.75;;
43216;SDS011;60511;42.686;23.300;2023-05-07T08:42:11;4.55;;;4.15;;
43216;SDS011;60511;42.686;23.300;2023-05-07T08:44:14;4.28;;;3.88;;
43216;SDS011;60511;42.686;23.300;2023-05-07T08:46:19;4.28;;;3.88;;
43216;SDS011;60511;42.686;23.300;2023-05-07T08:48:21;4.32;;;3.92;;
43216;SDS011;60511;42.686;23.300;2023-05-07T08:50:25;4.28;;;3.88;;
43216;SDS011;60511;42.686;23.300;2023-05-07T08:52:26;3.95;;;3.55;;
43216;SDS011;60511;42.686;23.300;2023-05-07T08:54:27;4.40;;;4.00;;
43216;SDS011;60511;42.686;23.300;2023-05-07T08:56:29;4.05;;;3.65;;
43216;SDS011;60511;42.686;23.300;2023-05-07T08:58:29;4.28;;;3.80;;
43216;SDS011;60511;42.686;23.300;2023-05-07T09:00:30;4.40;;;4.00;;
43216;SDS011;60511;42.686;23.300;2023-05-07T09:02:30;4.90;;;3.53;;
43216;SDS011;60511;42.686;23.300;2023-05-07T09:04:31;4.32;;;3.55;;
43216;SDS011;60511;42.686;23.300;2023-05-07T09:06:31;4.43;;;3.78;;
43216;SDS011;60511;42.686;23.300;2023-05-07T09:08:32;4.00;;;3.60;;
43216;SDS011;60511;42.686;23.300;2023-05-07T09:10:34;3.95;;;3.45;;
43216;SDS011;60511;42.686;23.300;2023-05-07T09:12:34;3.85;;;3.53;;
43216;SDS011;60511;42.686;23.300;2023-05-07T09:14:36;3.78;;;3.15;;
43216;SDS011;60511;42.686;23.300;2023-05-07T09:16:36;3.95;;;3.55;;
43216;SDS011;60511;42.686;23.300;2023-05-07T09:18:40;4.55;;;4.07;;
43216;SDS011;60511;42.686;23.300;2023-05-07T09:20:43;3.60;;;3.30;;
43216;SDS011;60511;42.686;23.300;2023-05-07T09:22:44;4.30;;;3.90;;
43216;SDS011;60511;42.686;23.300;2023-05-07T09:24:47;5.13;;;4.38;;
43216;SDS011;60511;42.686;23.300;2023-05-07T09:28:48;3.92;;;3.42;;
43216;SDS011;60511;42.686;23.300;2023-05-07T09:30:49;5.70;;;3.95;;
43216;SDS011;60511;42.686;23.300;2023-05-07T09:32:50;5.40;;;3.72;;
43216;SDS011;60511;42.686;23.300;2023-05-07T09:34:52;4.15;;;3.75;;
43216;SDS011;60511;42.686;23.300;2023-05-07T09:36:52;3.78;;;3.42;;
43216;SDS011;60511;42.686;23.300;2023-05-07T09:38:53;4.03;;;3.63;;
43216;SDS011;60511;42.686;23.300;2023-05-07T09:43:11;3.75;;;3.45;;
43216;SDS011;60511;42.686;23.300;2023-05-07T09:45:13;3.85;;;3.45;;
43216;SDS011;60511;42.686;23.300;2023-05-07T09:47:16;4.60;;;3.75;;
43216;SDS011;60511;42.686;23.300;2023-05-07T09:49:23;5.05;;;3.97;;
43216;SDS011;60511;42.686;23.300;2023-05-07T09:51:25;3.78;;;3.38;;
43216;SDS011;60511;42.686;23.300;2023-05-07T09:53:31;4.95;;;3.58;;
43216;SDS011;60511;42.686;23.300;2023-05-07T09:55:33;3.60;;;3.30;;
43216;SDS011;60511;42.686;23.300;2023-05-07T09:57:34;4.07;;;3.67;;
43216;SDS011;60511;42.686;23.300;2023-05-07T09:59:37;4.25;;;3.83;;
43216;SDS011;60511;42.686;23.300;2023-05-07T10:01:38;4.88;;;3.95;;
43216;SDS011;60511;42.686;23.300;2023-05-07T10:03:42;4.07;;;3.47;;
43216;SDS011;60511;42.686;23.300;2023-05-07T10:05:44;5.00;;;3.92;;
43216;SDS011;60511;42.686;23.300;2023-05-07T10:07:46;5.05;;;3.72;;
43216;SDS011;60511;42.686;23.300;2023-05-07T10:09:47;5.40;;;3.15;;
43216;SDS011;60511;42.686;23.300;2023-05-07T10:11:48;3.58;;;3.28;;
43216;SDS011;60511;42.686;23.300;2023-05-07T10:13:49;5.30;;;3.50;;
43216;SDS011;60511;42.686;23.300;2023-05-07T10:15:51;4.55;;;4.15;;
43216;SDS011;60511;42.686;23.300;2023-05-07T10:17:52;3.45;;;3.15;;
43216;SDS011;60511;42.686;23.300;2023-05-07T10:19:53;3.30;;;3.00;;
43216;SDS011;60511;42.686;23.300;2023-05-07T10:21:55;4.10;;;3.70;;
43216;SDS011;60511;42.686;23.300;2023-05-07T10:24:01;3.85;;;3.55;;
43216;SDS011;60511;42.686;23.300;2023-05-07T10:26:10;4.50;;;3.40;;
43216;SDS011;60511;42.686;23.300;2023-05-07T10:28:12;3.97;;;3.57;;
43216;SDS011;60511;42.686;23.300;2023-05-07T10:32:55;3.90;;;3.22;;
43216;SDS011;60511;42.686;23.300;2023-05-07T10:35:06;4.28;;;3.50;;
43216;SDS011;60511;42.686;23.300;2023-05-07T10:37:16;3.40;;;3.10;;
43216;SDS011;60511;42.686;23.300;2023-05-07T10:39:17;3.92;;;3.55;;
43216;SDS011;60511;42.686;23.300;2023-05-07T10:41:19;3.50;;;3.20;;
43216;SDS011;60511;42.686;23.300;2023-05-07T10:43:21;2.83;;;2.63;;
43216;SDS011;60511;42.686;23.300;2023-05-07T10:45:21;4.18;;;3.45;;
43216;SDS011;60511;42.686;23.300;2023-05-07T10:47:22;3.63;;;3.33;;
43216;SDS011;60511;42.686;23.300;2023-05-07T10:49:22;5.20;;;3.42;;
43216;SDS011;60511;42.686;23.300;2023-05-07T10:51:23;4.07;;;3.28;;
43216;SDS011;60511;42.686;23.300;2023-05-07T10:53:24;3.13;;;2.83;;
43216;SDS011;60511;42.686;23.300;2023-05-07T10:57:34;3.88;;;3.00;;
43216;SDS011;60511;42.686;23.300;2023-05-07T10:59:38;3.22;;;2.97;;
43216;SDS011;60511;42.686;23.300;2023-05-07T11:01:54;3.60;;;3.30;;
43216;SDS011;60511;42.686;23.300;2023-05-07T11:04:16;2.97;;;2.78;;
43216;SDS011;60511;42.686;23.300;2023-05-07T11:06:17;2.92;;;2.72;;
43216;SDS011;60511;42.686;23.300;2023-05-07T11:08:17;3.13;;;2.92;;
43216;SDS011;60511;42.686;23.300;2023-05-07T11:10:18;3.38;;;3.08;;
43216;SDS011;60511;42.686;23.300;2023-05-07T11:16:42;3.92;;;3.20;;
43216;SDS011;60511;42.686;23.300;2023-05-07T11:18:47;3.13;;;2.83;;
43216;SDS011;60511;42.686;23.300;2023-05-07T11:20:53;4.05;;;3.20;;
43216;SDS011;60511;42.686;23.300;2023-05-07T11:22:57;3.28;;;3.08;;
43216;SDS011;60511;42.686;23.300;2023-05-07T11:25:04;3.60;;;3.30;;
43216;SDS011;60511;42.686;23.300;2023-05-07T11:27:06;2.83;;;2.58;;
43216;SDS011;60511;42.686;23.300;2023-05-07T11:29:10;3.15;;;2.85;;
43216;SDS011;60511;42.686;23.300;2023-05-07T11:31:15;3.42;;;3.17;;
43216;SDS011;60511;42.686;23.300;2023-05-07T11:33:21;3.42;;;3.17;;
43216;SDS011;60511;42.686;23.300;2023-05-07T11:35:22;4.10;;;3.70;;
43216;SDS011;60511;42.686;23.300;2023-05-07T11:37:25;3.28;;;3.03;;
43216;SDS011;60511;42.686;23.300;2023-05-07T11:39:28;2.97;;;2.78;;
43216;SDS011;60511;42.686;23.300;2023-05-07T11:41:36;3.55;;;3.10;;
43216;SDS011;60511;42.686;23.300;2023-05-07T11:43:37;2.70;;;2.50;;
43216;SDS011;60511;42.686;23.300;2023-05-07T11:45:39;3.67;;;3.37;;
43216;SDS011;60511;42.686;23.300;2023-05-07T11:47:41;3.50;;;2.90;;
43216;SDS011;60511;42.686;23.300;2023-05-07T11:49:41;3.30;;;3.00;;
43216;SDS011;60511;42.686;23.300;2023-05-07T11:51:42;3.00;;;2.80;;
43216;SDS011;60511;42.686;23.300;2023-05-07T11:53:44;3.22;;;3.00;;
43216;SDS011;60511;42.686;23.300;2023-05-07T11:55:44;3.17;;;2.97;;
43216;SDS011;60511;42.686;23.300;2023-05-07T11:57:44;3.50;;;3.20;;
43216;SDS011;60511;42.686;23.300;2023-05-07T11:59:45;3.30;;;3.10;;
43216;SDS011;60511;42.686;23.300;2023-05-07T12:01:47;2.90;;;2.70;;
43216;SDS011;60511;42.686;23.300;2023-05-07T12:03:47;2.97;;;2.70;;
43216;SDS011;60511;42.686;23.300;2023-05-07T12:05:48;3.40;;;3.10;;
43216;SDS011;60511;42.686;23.300;2023-05-07T12:07:49;3.40;;;2.83;;
43216;SDS011;60511;42.686;23.300;2023-05-07T12:09:56;3.20;;;2.90;;
43216;SDS011;60511;42.686;23.300;2023-05-07T12:11:56;2.92;;;2.72;;